sensor_id;sensor_type;location;lat;lon;timestamp;temperature;humidity
46366;DHT22;32073;49.166;8.076;2022-08-25T00:00:59;25.90;38.30
46366;DHT22;32073;49.166;8.076;2022-08-25T00:05:00;25.80;38.40
46366;DHT22;32073;49.166;8.076;2022-08-25T00:09:01;25.80;38.20
46366;DHT22;32073;49.166;8.076;2022-08-25T00:13:03;25.80;38.50
46366;DHT22;32073;49.166;8.076;2022-08-25T00:17:05;25.70;38.60
46366;DHT22;32073;49.166;8.076;2022-08-25T00:21:08;25.80;38.70
46366;DHT22;32073;49.166;8.076;2022-08-25T00:25:09;25.70;38.70
46366;DHT22;32073;49.166;8.076;2022-08-25T00:29:10;25.70;38.80
46366;DHT22;32073;49.166;8.076;2022-08-25T00:33:11;25.70;38.80
46366;DHT22;32073;49.166;8.076;2022-08-25T00:37:12;25.70;38.90
46366;DHT22;32073;49.166;8.076;2022-08-25T00:41:18;25.60;39.20
46366;DHT22;32073;49.166;8.076;2022-08-25T00:45:20;25.60;39.40
46366;DHT22;32073;49.166;8.076;2022-08-25T00:53:46;25.50;39.60
46366;DHT22;32073;49.166;8.076;2022-08-25T00:58:07;25.50;39.40
46366;DHT22;32073;49.166;8.076;2022-08-25T01:02:14;25.40;39.60
46366;DHT22;32073;49.166;8.076;2022-08-25T01:06:15;25.40;39.70
46366;DHT22;32073;49.166;8.076;2022-08-25T01:10:17;25.30;39.70
46366;DHT22;32073;49.166;8.076;2022-08-25T01:14:20;25.30;40.00
46366;DHT22;32073;49.166;8.076;2022-08-25T01:18:23;25.30;40.10
46366;DHT22;32073;49.166;8.076;2022-08-25T01:22:24;25.20;40.20
46366;DHT22;32073;49.166;8.076;2022-08-25T01:26:28;25.20;40.40
46366;DHT22;32073;49.166;8.076;2022-08-25T01:30:31;25.20;40.60
46366;DHT22;32073;49.166;8.076;2022-08-25T01:34:36;25.20;40.50
46366;DHT22;32073;49.166;8.076;2022-08-25T01:38:39;25.10;40.70
46366;DHT22;32073;49.166;8.076;2022-08-25T01:43:00;25.10;40.80
46366;DHT22;32073;49.166;8.076;2022-08-25T01:47:11;25.00;41.00
46366;DHT22;32073;49.166;8.076;2022-08-25T01:51:19;25.00;40.90
46366;DHT22;32073;49.166;8.076;2022-08-25T01:55:20;24.90;41.40
46366;DHT22;32073;49.166;8.076;2022-08-25T01:59:22;24.90;41.40
46366;DHT22;32073;49.166;8.076;2022-08-25T02:03:24;24.90;41.30
46366;DHT22;32073;49.166;8.076;2022-08-25T02:07:25;24.80;41.60
46366;DHT22;32073;49.166;8.076;2022-08-25T02:11:27;24.80;41.70
46366;DHT22;32073;49.166;8.076;2022-08-25T02:15:28;24.80;41.70
46366;DHT22;32073;49.166;8.076;2022-08-25T02:19:29;24.70;41.60
46366;DHT22;32073;49.166;8.076;2022-08-25T02:23:30;24.70;42.00
46366;DHT22;32073;49.166;8.076;2022-08-25T02:27:31;24.80;42.10
46366;DHT22;32073;49.166;8.076;2022-08-25T02:31:32;24.60;42.20
46366;DHT22;32073;49.166;8.076;2022-08-25T02:35:33;24.60;42.10
46366;DHT22;32073;49.166;8.076;2022-08-25T02:39:34;24.60;42.50
46366;DHT22;32073;49.166;8.076;2022-08-25T02:43:36;24.60;42.60
46366;DHT22;32073;49.166;8.076;2022-08-25T02:47:36;24.50;42.60
46366;DHT22;32073;49.166;8.076;2022-08-25T02:51:37;24.50;42.70
46366;DHT22;32073;49.166;8.076;2022-08-25T02:55:38;24.50;42.80
46366;DHT22;32073;49.166;8.076;2022-08-25T02:59:39;24.40;42.90
46366;DHT22;32073;49.166;8.076;2022-08-25T03:03:42;24.40;42.90
46366;DHT22;32073;49.166;8.076;2022-08-25T03:07:45;24.50;43.10
46366;DHT22;32073;49.166;8.076;2022-08-25T03:11:45;24.40;43.00
46366;DHT22;32073;49.166;8.076;2022-08-25T03:15:46;24.30;43.20
46366;DHT22;32073;49.166;8.076;2022-08-25T03:19:47;24.30;43.40
46366;DHT22;32073;49.166;8.076;2022-08-25T03:23:48;24.30;43.50
46366;DHT22;32073;49.166;8.076;2022-08-25T03:27:48;24.20;43.50
46366;DHT22;32073;49.166;8.076;2022-08-25T03:31:52;24.20;43.50
46366;DHT22;32073;49.166;8.076;2022-08-25T03:35:59;24.20;43.80
46366;DHT22;32073;49.166;8.076;2022-08-25T03:40:05;24.20;43.70
46366;DHT22;32073;49.166;8.076;2022-08-25T03:44:09;24.10;43.80
46366;DHT22;32073;49.166;8.076;2022-08-25T03:48:10;24.10;43.80
46366;DHT22;32073;49.166;8.076;2022-08-25T03:52:11;24.10;43.90
46366;DHT22;32073;49.166;8.076;2022-08-25T03:56:12;24.10;44.20
46366;DHT22;32073;49.166;8.076;2022-08-25T04:00:13;24.00;44.30
46366;DHT22;32073;49.166;8.076;2022-08-25T04:04:15;24.00;44.40
46366;DHT22;32073;49.166;8.076;2022-08-25T04:08:15;24.00;44.60
46366;DHT22;32073;49.166;8.076;2022-08-25T04:12:16;23.90;44.50
46366;DHT22;32073;49.166;8.076;2022-08-25T04:16:20;23.90;44.70
46366;DHT22;32073;49.166;8.076;2022-08-25T04:20:24;23.90;45.10
46366;DHT22;32073;49.166;8.076;2022-08-25T04:24:25;23.90;45.00
46366;DHT22;32073;49.166;8.076;2022-08-25T04:28:26;23.90;45.00
46366;DHT22;32073;49.166;8.076;2022-08-25T04:32:26;23.90;45.40
46366;DHT22;32073;49.166;8.076;2022-08-25T04:36:28;23.80;45.30
46366;DHT22;32073;49.166;8.076;2022-08-25T04:40:28;23.80;45.50
46366;DHT22;32073;49.166;8.076;2022-08-25T04:44:30;23.80;45.90
46366;DHT22;32073;49.166;8.076;2022-08-25T04:48:31;23.80;45.70
46366;DHT22;32073;49.166;8.076;2022-08-25T04:52:32;23.70;45.90
46366;DHT22;32073;49.166;8.076;2022-08-25T04:56:33;23.70;45.90
46366;DHT22;32073;49.166;8.076;2022-08-25T05:00:35;23.80;46.30
46366;DHT22;32073;49.166;8.076;2022-08-25T05:04:36;23.80;46.40
46366;DHT22;32073;49.166;8.076;2022-08-25T05:08:37;23.90;46.70
46366;DHT22;32073;49.166;8.076;2022-08-25T05:12:38;24.10;46.90
46366;DHT22;32073;49.166;8.076;2022-08-25T05:16:39;24.30;46.80
46366;DHT22;32073;49.166;8.076;2022-08-25T05:20:40;24.60;46.80
46366;DHT22;32073;49.166;8.076;2022-08-25T05:24:41;24.80;46.60
46366;DHT22;32073;49.166;8.076;2022-08-25T05:28:41;24.90;46.40
46366;DHT22;32073;49.166;8.076;2022-08-25T05:32:42;25.00;46.10
46366;DHT22;32073;49.166;8.076;2022-08-25T05:36:43;25.00;46.00
46366;DHT22;32073;49.166;8.076;2022-08-25T05:40:44;25.00;46.00
46366;DHT22;32073;49.166;8.076;2022-08-25T05:44:44;25.00;46.00
46366;DHT22;32073;49.166;8.076;2022-08-25T05:48:46;24.90;46.00
46366;DHT22;32073;49.166;8.076;2022-08-25T05:52:47;24.90;46.20
46366;DHT22;32073;49.166;8.076;2022-08-25T05:56:48;24.90;46.20
46366;DHT22;32073;49.166;8.076;2022-08-25T06:00:50;24.80;46.30
46366;DHT22;32073;49.166;8.076;2022-08-25T06:04:50;24.80;46.60
46366;DHT22;32073;49.166;8.076;2022-08-25T06:08:51;24.70;46.50
46366;DHT22;32073;49.166;8.076;2022-08-25T06:12:52;24.70;46.60
46366;DHT22;32073;49.166;8.076;2022-08-25T06:16:53;24.70;46.80
46366;DHT22;32073;49.166;8.076;2022-08-25T06:20:53;24.70;47.10
46366;DHT22;32073;49.166;8.076;2022-08-25T06:24:54;24.70;47.20
46366;DHT22;32073;49.166;8.076;2022-08-25T06:28:55;24.70;47.20
46366;DHT22;32073;49.166;8.076;2022-08-25T06:32:56;24.70;47.30
46366;DHT22;32073;49.166;8.076;2022-08-25T06:36:56;24.70;47.50
46366;DHT22;32073;49.166;8.076;2022-08-25T06:40:57;24.80;47.60
46366;DHT22;32073;49.166;8.076;2022-08-25T06:45:02;24.80;47.60
46366;DHT22;32073;49.166;8.076;2022-08-25T06:49:05;24.80;47.70
46366;DHT22;32073;49.166;8.076;2022-08-25T06:53:06;24.90;47.80
46366;DHT22;32073;49.166;8.076;2022-08-25T06:57:07;24.90;47.80
46366;DHT22;32073;49.166;8.076;2022-08-25T07:01:08;25.00;47.80
46366;DHT22;32073;49.166;8.076;2022-08-25T07:05:12;25.00;47.90
46366;DHT22;32073;49.166;8.076;2022-08-25T07:09:13;25.00;47.80
46366;DHT22;32073;49.166;8.076;2022-08-25T07:13:15;25.10;48.00
46366;DHT22;32073;49.166;8.076;2022-08-25T07:17:15;25.20;48.00
46366;DHT22;32073;49.166;8.076;2022-08-25T07:21:16;25.20;47.90
46366;DHT22;32073;49.166;8.076;2022-08-25T07:25:17;25.30;48.00
46366;DHT22;32073;49.166;8.076;2022-08-25T07:29:24;25.30;48.00
46366;DHT22;32073;49.166;8.076;2022-08-25T07:33:26;25.40;48.10
46366;DHT22;32073;49.166;8.076;2022-08-25T07:37:27;25.50;48.10
46366;DHT22;32073;49.166;8.076;2022-08-25T07:41:27;25.50;48.20
46366;DHT22;32073;49.166;8.076;2022-08-25T07:45:31;25.60;48.30
46366;DHT22;32073;49.166;8.076;2022-08-25T07:49:32;25.60;48.30
46366;DHT22;32073;49.166;8.076;2022-08-25T07:53:33;25.60;48.30
46366;DHT22;32073;49.166;8.076;2022-08-25T07:57:33;25.80;48.50
46366;DHT22;32073;49.166;8.076;2022-08-25T08:01:35;25.90;48.40
46366;DHT22;32073;49.166;8.076;2022-08-25T08:05:39;25.90;48.50
46366;DHT22;32073;49.166;8.076;2022-08-25T08:09:40;25.90;48.50
46366;DHT22;32073;49.166;8.076;2022-08-25T08:13:41;26.00;48.50
46366;DHT22;32073;49.166;8.076;2022-08-25T08:17:42;26.10;48.50
46366;DHT22;32073;49.166;8.076;2022-08-25T08:21:43;26.20;48.50
46366;DHT22;32073;49.166;8.076;2022-08-25T08:25:43;26.30;48.50
46366;DHT22;32073;49.166;8.076;2022-08-25T08:29:44;26.30;48.40
46366;DHT22;32073;49.166;8.076;2022-08-25T08:33:46;26.50;48.50
46366;DHT22;32073;49.166;8.076;2022-08-25T08:37:49;26.50;48.40
46366;DHT22;32073;49.166;8.076;2022-08-25T08:46:18;26.60;48.40
46366;DHT22;32073;49.166;8.076;2022-08-25T08:50:31;26.70;48.30
46366;DHT22;32073;49.166;8.076;2022-08-25T08:54:37;26.80;48.40
46366;DHT22;32073;49.166;8.076;2022-08-25T09:02:56;27.00;48.20
46366;DHT22;32073;49.166;8.076;2022-08-25T09:07:05;27.00;48.10
46366;DHT22;32073;49.166;8.076;2022-08-25T09:15:59;27.20;48.10
46366;DHT22;32073;49.166;8.076;2022-08-25T09:29:21;27.50;47.90
46366;DHT22;32073;49.166;8.076;2022-08-25T09:33:25;27.60;47.90
46366;DHT22;32073;49.166;8.076;2022-08-25T09:37:27;27.70;47.80
46366;DHT22;32073;49.166;8.076;2022-08-25T09:45:45;27.90;47.50
46366;DHT22;32073;49.166;8.076;2022-08-25T09:53:57;28.10;47.10
46366;DHT22;32073;49.166;8.076;2022-08-25T09:57:59;28.20;46.90
46366;DHT22;32073;49.166;8.076;2022-08-25T10:02:03;28.20;46.80
46366;DHT22;32073;49.166;8.076;2022-08-25T10:06:27;28.30;46.60
46366;DHT22;32073;49.166;8.076;2022-08-25T10:10:33;28.50;46.50
46366;DHT22;32073;49.166;8.076;2022-08-25T10:14:36;28.60;46.50
46366;DHT22;32073;49.166;8.076;2022-08-25T10:18:40;28.70;46.60
46366;DHT22;32073;49.166;8.076;2022-08-25T10:22:42;28.80;46.10
46366;DHT22;32073;49.166;8.076;2022-08-25T10:31:26;29.00;45.80
46366;DHT22;32073;49.166;8.076;2022-08-25T10:35:55;29.10;45.40
46366;DHT22;32073;49.166;8.076;2022-08-25T10:45:12;29.40;45.20
46366;DHT22;32073;49.166;8.076;2022-08-25T10:50:00;29.50;45.60
46366;DHT22;32073;49.166;8.076;2022-08-25T11:07:41;29.80;44.40
46366;DHT22;32073;49.166;8.076;2022-08-25T11:11:51;29.90;44.10
46366;DHT22;32073;49.166;8.076;2022-08-25T11:15:59;30.00;44.20
46366;DHT22;32073;49.166;8.076;2022-08-25T11:20:14;30.00;43.70
46366;DHT22;32073;49.166;8.076;2022-08-25T11:32:49;30.30;43.60
46366;DHT22;32073;49.166;8.076;2022-08-25T11:36:55;30.40;43.40
46366;DHT22;32073;49.166;8.076;2022-08-25T11:41:16;30.50;43.10
46366;DHT22;32073;49.166;8.076;2022-08-25T11:45:40;30.70;43.10
46366;DHT22;32073;49.166;8.076;2022-08-25T11:50:31;30.80;42.60
46366;DHT22;32073;49.166;8.076;2022-08-25T11:54:43;30.90;43.00
46366;DHT22;32073;49.166;8.076;2022-08-25T11:58:51;31.00;42.20
46366;DHT22;32073;49.166;8.076;2022-08-25T12:02:52;31.00;41.80
46366;DHT22;32073;49.166;8.076;2022-08-25T12:11:06;31.20;41.60
46366;DHT22;32073;49.166;8.076;2022-08-25T12:23:45;31.40;41.10
46366;DHT22;32073;49.166;8.076;2022-08-25T12:28:30;31.40;41.10
46366;DHT22;32073;49.166;8.076;2022-08-25T12:37:17;31.50;41.20
46366;DHT22;32073;49.166;8.076;2022-08-25T12:41:25;31.60;40.50
46366;DHT22;32073;49.166;8.076;2022-08-25T12:45:34;31.60;40.30
46366;DHT22;32073;49.166;8.076;2022-08-25T12:49:39;31.70;40.00
46366;DHT22;32073;49.166;8.076;2022-08-25T12:53:45;31.80;40.20
46366;DHT22;32073;49.166;8.076;2022-08-25T12:57:55;31.80;40.00
46366;DHT22;32073;49.166;8.076;2022-08-25T13:11:00;32.00;39.60
46366;DHT22;32073;49.166;8.076;2022-08-25T13:15:04;32.00;39.40
46366;DHT22;32073;49.166;8.076;2022-08-25T13:19:06;32.00;39.00
46366;DHT22;32073;49.166;8.076;2022-08-25T13:23:07;32.10;39.00
46366;DHT22;32073;49.166;8.076;2022-08-25T13:27:17;32.20;39.10
46366;DHT22;32073;49.166;8.076;2022-08-25T13:31:20;32.20;38.60
46366;DHT22;32073;49.166;8.076;2022-08-25T13:35:27;32.30;38.60
46366;DHT22;32073;49.166;8.076;2022-08-25T13:39:30;32.30;38.00
46366;DHT22;32073;49.166;8.076;2022-08-25T13:43:36;32.40;38.00
46366;DHT22;32073;49.166;8.076;2022-08-25T13:47:39;32.40;37.70
46366;DHT22;32073;49.166;8.076;2022-08-25T13:51:50;32.40;37.80
46366;DHT22;32073;49.166;8.076;2022-08-25T13:55:56;32.50;37.70
46366;DHT22;32073;49.166;8.076;2022-08-25T14:00:06;32.50;37.70
46366;DHT22;32073;49.166;8.076;2022-08-25T14:04:22;32.50;37.50
46366;DHT22;32073;49.166;8.076;2022-08-25T14:08:37;32.60;38.00
46366;DHT22;32073;49.166;8.076;2022-08-25T14:12:41;32.60;37.50
46366;DHT22;32073;49.166;8.076;2022-08-25T14:16:50;32.70;37.20
46366;DHT22;32073;49.166;8.076;2022-08-25T14:20:53;32.70;37.00
46366;DHT22;32073;49.166;8.076;2022-08-25T14:24:55;32.80;37.90
46366;DHT22;32073;49.166;8.076;2022-08-25T14:28:56;32.80;36.80
46366;DHT22;32073;49.166;8.076;2022-08-25T14:32:56;32.80;36.60
46366;DHT22;32073;49.166;8.076;2022-08-25T14:36:57;32.90;36.70
46366;DHT22;32073;49.166;8.076;2022-08-25T14:40:59;32.80;36.70
46366;DHT22;32073;49.166;8.076;2022-08-25T14:45:00;32.80;36.50
46366;DHT22;32073;49.166;8.076;2022-08-25T14:49:04;32.80;36.40
46366;DHT22;32073;49.166;8.076;2022-08-25T14:53:08;32.90;36.10
46366;DHT22;32073;49.166;8.076;2022-08-25T14:57:09;32.80;36.40
46366;DHT22;32073;49.166;8.076;2022-08-25T15:01:12;32.90;36.60
46366;DHT22;32073;49.166;8.076;2022-08-25T15:05:17;32.90;36.50
46366;DHT22;32073;49.166;8.076;2022-08-25T15:09:27;32.90;36.50
46366;DHT22;32073;49.166;8.076;2022-08-25T15:13:28;33.00;36.20
46366;DHT22;32073;49.166;8.076;2022-08-25T15:17:29;33.00;36.20
46366;DHT22;32073;49.166;8.076;2022-08-25T15:21:30;33.00;36.10
46366;DHT22;32073;49.166;8.076;2022-08-25T15:25:30;33.00;36.00
46366;DHT22;32073;49.166;8.076;2022-08-25T15:29:32;33.00;35.90
46366;DHT22;32073;49.166;8.076;2022-08-25T15:33:34;33.00;36.20
46366;DHT22;32073;49.166;8.076;2022-08-25T15:37:34;32.90;35.80
46366;DHT22;32073;49.166;8.076;2022-08-25T15:41:36;33.00;35.80
46366;DHT22;32073;49.166;8.076;2022-08-25T15:45:37;33.00;35.60
46366;DHT22;32073;49.166;8.076;2022-08-25T15:49:37;32.90;35.50
46366;DHT22;32073;49.166;8.076;2022-08-25T15:53:38;32.90;35.20
46366;DHT22;32073;49.166;8.076;2022-08-25T15:57:39;32.90;35.50
46366;DHT22;32073;49.166;8.076;2022-08-25T16:01:40;32.90;35.30
46366;DHT22;32073;49.166;8.076;2022-08-25T16:05:43;32.90;35.40
46366;DHT22;32073;49.166;8.076;2022-08-25T16:09:45;32.90;35.30
46366;DHT22;32073;49.166;8.076;2022-08-25T16:13:46;32.90;35.00
46366;DHT22;32073;49.166;8.076;2022-08-25T16:17:47;32.90;35.20
46366;DHT22;32073;49.166;8.076;2022-08-25T16:21:48;32.80;35.10
46366;DHT22;32073;49.166;8.076;2022-08-25T16:25:48;32.80;35.00
46366;DHT22;32073;49.166;8.076;2022-08-25T16:29:49;32.80;34.80
46366;DHT22;32073;49.166;8.076;2022-08-25T16:33:51;32.80;34.70
46366;DHT22;32073;49.166;8.076;2022-08-25T16:37:52;32.80;34.80
46366;DHT22;32073;49.166;8.076;2022-08-25T16:41:54;32.70;34.60
46366;DHT22;32073;49.166;8.076;2022-08-25T16:46:03;32.70;34.90
46366;DHT22;32073;49.166;8.076;2022-08-25T16:50:07;32.70;34.80
46366;DHT22;32073;49.166;8.076;2022-08-25T16:54:10;32.60;34.90
46366;DHT22;32073;49.166;8.076;2022-08-25T16:58:31;32.60;34.90
46366;DHT22;32073;49.166;8.076;2022-08-25T17:02:32;32.60;35.10
46366;DHT22;32073;49.166;8.076;2022-08-25T17:06:36;32.50;34.80
46366;DHT22;32073;49.166;8.076;2022-08-25T17:10:40;32.50;34.70
46366;DHT22;32073;49.166;8.076;2022-08-25T17:14:41;32.50;34.80
46366;DHT22;32073;49.166;8.076;2022-08-25T17:18:42;32.40;34.80
46366;DHT22;32073;49.166;8.076;2022-08-25T17:22:43;32.40;34.90
46366;DHT22;32073;49.166;8.076;2022-08-25T17:26:44;32.30;35.00
46366;DHT22;32073;49.166;8.076;2022-08-25T17:30:49;32.30;35.00
46366;DHT22;32073;49.166;8.076;2022-08-25T17:34:51;32.20;35.10
46366;DHT22;32073;49.166;8.076;2022-08-25T17:38:51;32.20;35.00
46366;DHT22;32073;49.166;8.076;2022-08-25T17:42:52;32.10;35.00
46366;DHT22;32073;49.166;8.076;2022-08-25T17:46:53;32.10;35.10
46366;DHT22;32073;49.166;8.076;2022-08-25T17:50:54;32.10;35.10
46366;DHT22;32073;49.166;8.076;2022-08-25T17:54:55;32.00;35.10
46366;DHT22;32073;49.166;8.076;2022-08-25T17:58:56;32.00;35.20
46366;DHT22;32073;49.166;8.076;2022-08-25T18:02:57;31.80;35.20
46366;DHT22;32073;49.166;8.076;2022-08-25T18:06:58;31.80;35.40
46366;DHT22;32073;49.166;8.076;2022-08-25T18:10:59;31.70;35.40
46366;DHT22;32073;49.166;8.076;2022-08-25T18:15:00;31.60;35.50
46366;DHT22;32073;49.166;8.076;2022-08-25T18:19:01;31.50;35.60
46366;DHT22;32073;49.166;8.076;2022-08-25T18:23:01;31.40;35.60
46366;DHT22;32073;49.166;8.076;2022-08-25T18:27:02;31.30;35.80
46366;DHT22;32073;49.166;8.076;2022-08-25T18:31:04;31.30;36.00
46366;DHT22;32073;49.166;8.076;2022-08-25T18:35:05;31.20;36.30
46366;DHT22;32073;49.166;8.076;2022-08-25T18:39:07;31.10;36.30
46366;DHT22;32073;49.166;8.076;2022-08-25T18:43:27;31.00;36.60
46366;DHT22;32073;49.166;8.076;2022-08-25T18:47:31;30.80;36.70
46366;DHT22;32073;49.166;8.076;2022-08-25T18:51:32;30.70;36.80
46366;DHT22;32073;49.166;8.076;2022-08-25T18:55:34;30.60;36.90
46366;DHT22;32073;49.166;8.076;2022-08-25T18:59:36;30.50;36.90
46366;DHT22;32073;49.166;8.076;2022-08-25T19:03:36;30.40;36.80
46366;DHT22;32073;49.166;8.076;2022-08-25T19:07:37;30.30;36.80
46366;DHT22;32073;49.166;8.076;2022-08-25T19:11:38;30.30;36.90
46366;DHT22;32073;49.166;8.076;2022-08-25T19:15:40;30.20;37.00
46366;DHT22;32073;49.166;8.076;2022-08-25T19:19:43;30.10;36.90
46366;DHT22;32073;49.166;8.076;2022-08-25T19:23:43;30.00;36.90
46366;DHT22;32073;49.166;8.076;2022-08-25T19:27:45;29.90;37.00
46366;DHT22;32073;49.166;8.076;2022-08-25T19:31:46;29.80;37.00
46366;DHT22;32073;49.166;8.076;2022-08-25T19:35:50;29.80;37.10
46366;DHT22;32073;49.166;8.076;2022-08-25T19:39:51;29.70;37.10
46366;DHT22;32073;49.166;8.076;2022-08-25T19:43:53;29.70;37.10
46366;DHT22;32073;49.166;8.076;2022-08-25T19:47:54;29.50;37.20
46366;DHT22;32073;49.166;8.076;2022-08-25T19:51:56;29.50;37.20
46366;DHT22;32073;49.166;8.076;2022-08-25T19:55:59;29.50;37.30
46366;DHT22;32073;49.166;8.076;2022-08-25T20:00:03;29.40;37.40
46366;DHT22;32073;49.166;8.076;2022-08-25T20:04:08;29.40;37.40
46366;DHT22;32073;49.166;8.076;2022-08-25T20:08:09;29.30;37.40
46366;DHT22;32073;49.166;8.076;2022-08-25T20:12:10;29.20;37.50
46366;DHT22;32073;49.166;8.076;2022-08-25T20:16:11;29.20;37.50
46366;DHT22;32073;49.166;8.076;2022-08-25T20:20:15;29.20;37.70
46366;DHT22;32073;49.166;8.076;2022-08-25T20:24:17;29.10;37.70
46366;DHT22;32073;49.166;8.076;2022-08-25T20:28:36;29.10;37.70
46366;DHT22;32073;49.166;8.076;2022-08-25T20:32:37;29.00;37.80
46366;DHT22;32073;49.166;8.076;2022-08-25T20:36:38;28.90;37.80
46366;DHT22;32073;49.166;8.076;2022-08-25T20:40:40;28.90;37.80
46366;DHT22;32073;49.166;8.076;2022-08-25T20:44:41;28.90;38.00
46366;DHT22;32073;49.166;8.076;2022-08-25T20:48:42;28.80;37.90
46366;DHT22;32073;49.166;8.076;2022-08-25T20:52:43;28.80;38.00
46366;DHT22;32073;49.166;8.076;2022-08-25T20:56:44;28.70;38.00
46366;DHT22;32073;49.166;8.076;2022-08-25T21:00:45;28.70;38.10
46366;DHT22;32073;49.166;8.076;2022-08-25T21:04:46;28.60;38.10
46366;DHT22;32073;49.166;8.076;2022-08-25T21:08:46;28.60;38.10
46366;DHT22;32073;49.166;8.076;2022-08-25T21:12:47;28.50;38.10
46366;DHT22;32073;49.166;8.076;2022-08-25T21:16:48;28.50;38.20
46366;DHT22;32073;49.166;8.076;2022-08-25T21:20:49;28.50;38.40
46366;DHT22;32073;49.166;8.076;2022-08-25T21:24:50;28.50;38.40
46366;DHT22;32073;49.166;8.076;2022-08-25T21:28:51;28.40;38.40
46366;DHT22;32073;49.166;8.076;2022-08-25T21:32:52;28.40;38.50
46366;DHT22;32073;49.166;8.076;2022-08-25T21:36:53;28.30;38.50
46366;DHT22;32073;49.166;8.076;2022-08-25T21:40:56;28.30;38.60
46366;DHT22;32073;49.166;8.076;2022-08-25T21:44:57;28.30;38.70
46366;DHT22;32073;49.166;8.076;2022-08-25T21:48:59;28.20;38.70
46366;DHT22;32073;49.166;8.076;2022-08-25T21:53:01;28.20;38.70
46366;DHT22;32073;49.166;8.076;2022-08-25T21:57:04;28.10;38.80
46366;DHT22;32073;49.166;8.076;2022-08-25T22:01:11;28.10;39.50
46366;DHT22;32073;49.166;8.076;2022-08-25T22:05:14;28.10;39.00
46366;DHT22;32073;49.166;8.076;2022-08-25T22:09:15;28.00;38.90
46366;DHT22;32073;49.166;8.076;2022-08-25T22:13:16;28.00;39.00
46366;DHT22;32073;49.166;8.076;2022-08-25T22:17:17;28.00;39.10
46366;DHT22;32073;49.166;8.076;2022-08-25T22:21:19;27.90;39.10
46366;DHT22;32073;49.166;8.076;2022-08-25T22:25:21;27.90;39.40
46366;DHT22;32073;49.166;8.076;2022-08-25T22:29:23;27.90;39.30
46366;DHT22;32073;49.166;8.076;2022-08-25T22:33:23;27.80;39.30
46366;DHT22;32073;49.166;8.076;2022-08-25T22:37:24;27.80;39.40
46366;DHT22;32073;49.166;8.076;2022-08-25T22:41:26;27.80;39.60
46366;DHT22;32073;49.166;8.076;2022-08-25T22:45:28;27.70;39.50
46366;DHT22;32073;49.166;8.076;2022-08-25T22:49:29;27.70;39.90
46366;DHT22;32073;49.166;8.076;2022-08-25T22:53:29;27.70;40.00
46366;DHT22;32073;49.166;8.076;2022-08-25T22:57:31;27.60;40.10
46366;DHT22;32073;49.166;8.076;2022-08-25T23:01:32;27.60;40.00
46366;DHT22;32073;49.166;8.076;2022-08-25T23:05:33;27.50;40.20
46366;DHT22;32073;49.166;8.076;2022-08-25T23:09:34;27.50;40.40
46366;DHT22;32073;49.166;8.076;2022-08-25T23:13:35;27.40;40.40
46366;DHT22;32073;49.166;8.076;2022-08-25T23:17:36;27.40;40.40
46366;DHT22;32073;49.166;8.076;2022-08-25T23:21:37;27.40;40.80
46366;DHT22;32073;49.166;8.076;2022-08-25T23:25:56;27.40;40.90
46366;DHT22;32073;49.166;8.076;2022-08-25T23:29:57;27.40;40.90
46366;DHT22;32073;49.166;8.076;2022-08-25T23:33:58;27.30;40.80
46366;DHT22;32073;49.166;8.076;2022-08-25T23:37:59;27.30;41.00
46366;DHT22;32073;49.166;8.076;2022-08-25T23:42:00;27.30;40.90
46366;DHT22;32073;49.166;8.076;2022-08-25T23:46:04;27.30;41.10
46366;DHT22;32073;49.166;8.076;2022-08-25T23:50:05;27.20;41.00
46366;DHT22;32073;49.166;8.076;2022-08-25T23:54:09;27.20;41.20
46366;DHT22;32073;49.166;8.076;2022-08-25T23:58:10;27.10;41.20
